Time;durP1;ratioP1;P1;durP2;ratioP2;P2;SDS_P1;SDS_P2;PMS_P1;PMS_P2;Temp;Humidity;BMP_temperature;BMP_pressure;BME280_temperature;BME280_humidity;BME280_pressure;Samples;Min_cycle;Max_cycle;Signal;HPM_P1;HPM_P2
2023/04/17 00:01:24;;;;;;;48.45;20.38;;;;;;;7.87;92.43;102916.66;6103224;19;20019;-75
2023/04/17 00:03:30;;;;;;;59.42;22.38;;;;;;;7.78;92.19;102917.50;6100626;19;20348;-74
2023/04/17 00:05:37;;;;;;;58.85;22.63;;;;;;;7.76;92.55;102913.13;6104422;19;20014;-74
2023/04/17 00:07:50;;;;;;;60.42;21.45;;;;;;;7.76;92.83;102914.00;6071305;19;20045;-68
2023/04/17 00:10:09;;;;;;;58.20;21.65;;;;;;;7.78;92.64;102916.66;6088162;19;20309;-68
2023/04/17 00:12:20;;;;;;;44.03;20.67;;;;;;;7.75;92.51;102907.03;6101987;19;20011;-68
2023/04/17 00:14:27;;;;;;;44.15;20.65;;;;;;;7.74;92.79;102913.16;6101995;19;20022;-74
2023/04/17 00:16:32;;;;;;;51.85;22.15;;;;;;;7.71;93.05;102905.25;6101204;19;20158;-74
2023/04/17 00:18:37;;;;;;;56.22;22.48;;;;;;;7.63;93.34;102907.84;6099178;19;19999;-74
2023/04/17 00:20:42;;;;;;;51.83;22.92;;;;;;;7.66;92.91;102909.59;6098238;19;20007;-74
2023/04/17 00:22:50;;;;;;;47.88;20.95;;;;;;;7.65;93.15;102905.25;6094870;19;20014;-74
2023/04/17 00:24:55;;;;;;;48.40;21.90;;;;;;;7.66;92.89;102910.50;6097340;19;20051;-75
2023/04/17 00:27:01;;;;;;;50.80;21.85;;;;;;;7.73;92.92;102908.78;6096216;19;20003;-75
2023/04/17 00:29:06;;;;;;;51.03;20.67;;;;;;;7.74;92.92;102907.91;6097745;19;20769;-75
2023/04/17 00:31:11;;;;;;;48.00;20.52;;;;;;;7.59;92.92;102913.94;6098769;19;20125;-75
2023/04/17 00:33:18;;;;;;;43.38;19.50;;;;;;;7.62;93.14;102913.09;6093572;19;20042;-74
2023/04/17 00:35:23;;;;;;;50.80;21.83;;;;;;;7.60;93.45;102914.81;6097304;19;20395;-74
2023/04/17 00:37:28;;;;;;;52.35;20.80;;;;;;;7.66;93.35;102913.13;6095703;19;20515;-76
2023/04/17 00:39:38;;;;;;;49.13;22.05;;;;;;;7.68;93.06;102913.97;6097548;19;20013;-74
2023/04/17 00:41:44;;;;;;;46.47;19.92;;;;;;;7.68;92.29;102913.97;6097493;19;20006;-73
2023/04/17 00:43:49;;;;;;;47.90;20.35;;;;;;;7.76;92.18;102908.78;6098712;19;20032;-75
2023/04/17 00:45:56;;;;;;;48.42;21.10;;;;;;;7.67;92.87;102909.63;6096086;19;20014;-74
2023/04/17 00:48:02;;;;;;;53.53;22.05;;;;;;;7.61;93.37;102909.59;6095768;19;20015;-75
2023/04/17 00:50:09;;;;;;;50.15;23.00;;;;;;;7.67;93.26;102909.63;6094169;19;20502;-75
2023/04/17 00:52:15;;;;;;;50.95;21.08;;;;;;;7.58;93.93;102913.91;6097940;19;20046;-76
2023/04/17 00:54:24;;;;;;;53.75;22.73;;;;;;;7.65;93.46;102905.25;6095345;19;19999;-75
2023/04/17 00:56:32;;;;;;;56.58;23.08;;;;;;;7.61;93.41;102913.94;6095736;19;20003;-75
2023/04/17 00:58:39;;;;;;;48.75;23.48;;;;;;;7.43;93.72;102907.75;6097892;19;20093;-76
2023/04/17 01:00:49;;;;;;;49.05;21.83;;;;;;;7.58;93.39;102908.69;6090346;19;20086;-70
2023/04/17 01:03:01;;;;;;;53.70;20.95;;;;;;;7.57;93.67;102907.81;6073909;19;20327;-70
2023/04/17 01:05:09;;;;;;;49.47;19.83;;;;;;;7.53;93.83;102905.16;6086218;19;20003;-69
2023/04/17 01:07:28;;;;;;;50.38;19.08;;;;;;;7.56;93.79;102911.31;6088224;19;20667;-70
2023/04/17 01:09:44;;;;;;;49.88;20.30;;;;;;;7.58;93.86;102908.69;6057613;19;20011;-69
2023/04/17 01:12:20;;;;;;;54.45;22.05;;;;;;;7.46;93.93;102912.13;6092550;19;20609;-70
2023/04/17 01:14:29;;;;;;;51.90;21.60;;;;;;;7.55;94.04;102913.91;6093250;19;20011;-68
2023/04/17 01:16:43;;;;;;;54.47;20.80;;;;;;;7.48;94.32;102919.13;6070141;19;20782;-68
2023/04/17 01:19:00;;;;;;;49.53;18.73;;;;;;;7.55;93.73;102919.13;6087847;19;20313;-68
2023/04/17 01:21:11;;;;;;;52.25;21.63;;;;;;;7.46;93.86;102914.75;6069035;19;20043;-68
2023/04/17 01:23:31;;;;;;;52.20;20.33;;;;;;;7.47;93.79;102919.97;6093693;19;20137;-68
2023/04/17 01:25:50;;;;;;;50.33;19.48;;;;;;;7.48;93.89;102916.50;6086877;19;20010;-68
2023/04/17 01:27:58;;;;;;;60.45;20.38;;;;;;;7.46;93.93;102918.22;6072076;19;20015;-68
2023/04/17 01:30:08;;;;;;;61.20;23.50;;;;;;;7.40;94.10;102914.72;6097081;19;20006;-68
2023/04/17 01:32:31;;;;;;;53.63;20.70;;;;;;;7.42;94.32;102918.19;6068757;19;20033;-68
2023/04/17 01:34:40;;;;;;;53.33;21.13;;;;;;;7.33;94.27;102913.78;6076248;19;22360;-68
2023/04/17 01:36:56;;;;;;;61.03;21.98;;;;;;;7.30;94.73;102923.38;6077092;19;20065;-69
2023/04/17 01:39:02;;;;;;;54.20;20.80;;;;;;;7.35;94.22;102912.06;6096866;19;20048;-68
2023/04/17 01:41:12;;;;;;;53.38;22.92;;;;;;;7.34;94.61;102912.91;6093677;19;20271;-70
2023/04/17 01:43:23;;;;;;;61.08;21.20;;;;;;;7.33;94.84;102919.03;6097469;19;20137;-69
2023/04/17 01:45:33;;;;;;;52.42;19.52;;;;;;;7.35;94.61;102916.44;6083176;19;20066;-69
2023/04/17 01:50:07;;;;;;;56.75;20.65;;;;;;;7.37;94.56;102910.34;6099988;19;20467;-74
2023/04/17 01:52:12;;;;;;;57.95;21.10;;;;;;;7.36;95.25;102912.94;6097122;19;20003;-74
2023/04/17 01:54:19;;;;;;;61.88;23.58;;;;;;;7.41;94.56;102906.84;6103590;19;20011;-74
2023/04/17 01:56:27;;;;;;;62.90;23.73;;;;;;;7.30;94.49;102913.78;6100320;19;20479;-75
2023/04/17 01:58:33;;;;;;;62.38;22.58;;;;;;;7.26;94.66;102906.75;6100974;19;20050;-74
2023/04/17 02:00:38;;;;;;;63.40;23.88;;;;;;;7.17;95.12;102906.72;6099064;19;20013;-74
2023/04/17 02:02:43;;;;;;;52.97;20.02;;;;;;;7.30;94.81;102913.78;6101763;19;20020;-74
2023/04/17 02:04:49;;;;;;;58.60;21.73;;;;;;;7.31;95.14;102912.91;6098608;19;20413;-74
2023/04/17 02:06:53;;;;;;;59.70;21.05;;;;;;;7.35;95.06;102912.06;6100047;19;20754;-74
2023/04/17 02:08:59;;;;;;;56.50;22.42;;;;;;;7.30;95.24;102918.13;6099675;19;20565;-74
2023/04/17 02:11:04;;;;;;;68.63;24.00;;;;;;;7.34;94.72;102909.44;6100073;19;20011;-74
2023/04/17 02:13:12;;;;;;;54.60;21.15;;;;;;;7.39;94.82;102910.34;6101286;19;20070;-74
2023/04/17 02:15:19;;;;;;;63.55;22.58;;;;;;;7.34;95.07;102912.03;6101063;19;20479;-74
2023/04/17 02:17:24;;;;;;;58.63;22.88;;;;;;;7.37;94.90;102909.44;6102224;19;20463;-74
2023/04/17 02:19:32;;;;;;;60.30;23.23;;;;;;;7.32;94.87;102906.81;6104729;19;20011;-74
2023/04/17 02:21:37;;;;;;;62.90;21.58;;;;;;;7.35;95.04;102906.84;6102425;19;20343;-74
2023/04/17 02:23:42;;;;;;;62.03;24.50;;;;;;;7.29;95.59;102900.69;6105478;19;20085;-74
2023/04/17 02:25:49;;;;;;;63.67;23.05;;;;;;;7.33;95.53;102905.94;6105538;19;20094;-74
2023/04/17 02:27:55;;;;;;;64.20;23.65;;;;;;;7.32;95.72;102900.69;6106393;19;20481;-74
2023/04/17 02:30:02;;;;;;;59.33;24.67;;;;;;;7.34;95.84;102898.97;6106488;19;20031;-74
2023/04/17 02:32:08;;;;;;;60.33;24.02;;;;;;;7.32;95.77;102906.81;6110230;19;20003;-74
2023/04/17 02:34:13;;;;;;;57.72;22.67;;;;;;;7.32;95.75;102900.69;6111073;19;20021;-73
2023/04/17 02:36:19;;;;;;;59.33;24.23;;;;;;;7.31;95.50;102899.81;6109603;19;20029;-73
2023/04/17 02:38:24;;;;;;;58.25;23.67;;;;;;;7.35;95.66;102904.22;6112030;19;20376;-76
2023/04/17 02:40:29;;;;;;;59.58;24.15;;;;;;;7.38;95.57;102901.63;6105833;19;20007;-76
2023/04/17 02:42:34;;;;;;;61.95;24.33;;;;;;;7.36;95.54;102902.47;6104371;19;20466;-75
2023/04/17 02:44:40;;;;;;;65.10;22.95;;;;;;;7.28;95.46;102910.25;6106227;19;20066;-74
2023/04/17 02:46:50;;;;;;;59.75;23.75;;;;;;;7.32;95.21;102905.91;6108943;19;20006;-72
2023/04/17 02:48:55;;;;;;;57.17;21.73;;;;;;;7.37;95.31;102902.50;6101140;19;20019;-74
2023/04/17 02:51:00;;;;;;;64.25;23.63;;;;;;;7.33;95.37;102905.94;6107272;19;20011;-74
2023/04/17 02:53:05;;;;;;;61.75;23.73;;;;;;;7.31;95.45;102905.06;6101775;19;20110;-74
2023/04/17 02:55:11;;;;;;;53.72;21.42;;;;;;;7.30;95.48;102900.69;6107792;19;20014;-75
2023/04/17 02:57:16;;;;;;;58.10;23.15;;;;;;;7.34;94.98;102899.84;6105097;19;20602;-75
2023/04/17 02:59:22;;;;;;;57.40;22.25;;;;;;;7.32;95.11;102901.59;6107162;19;20051;-74
2023/04/17 03:01:29;;;;;;;57.92;22.05;;;;;;;7.38;94.93;102901.63;6107780;19;20476;-73
2023/04/17 03:03:40;;;;;;;51.90;21.13;;;;;;;7.34;95.01;102896.34;6101451;19;20003;-73
2023/04/17 03:05:47;;;;;;;63.80;24.20;;;;;;;7.26;95.30;102899.78;6104771;19;20351;-74
2023/04/17 03:07:57;;;;;;;53.97;22.05;;;;;;;7.28;95.37;102905.03;6099032;19;20006;-68
2023/04/17 03:10:10;;;;;;;59.40;23.92;;;;;;;7.26;95.97;102905.00;6090267;19;20013;-68
2023/04/17 03:12:24;;;;;;;58.03;22.92;;;;;;;7.34;95.59;102898.97;6083371;19;20427;-68
2023/04/17 03:14:37;;;;;;;61.85;24.40;;;;;;;7.21;95.86;102903.25;6090142;19;20440;-68
2023/04/17 03:16:59;;;;;;;61.15;23.67;;;;;;;7.23;96.16;102898.91;6090995;19;20018;-69
2023/04/17 03:19:20;;;;;;;52.22;20.48;;;;;;;7.29;95.62;102898.94;6098723;19;20633;-68
2023/04/17 03:21:43;;;;;;;54.30;21.38;;;;;;;7.29;95.26;102901.53;6094404;19;20321;-68
2023/04/17 03:24:02;;;;;;;54.78;23.15;;;;;;;7.20;95.77;102898.88;6092174;19;20078;-68
2023/04/17 03:26:09;;;;;;;53.80;21.13;;;;;;;7.22;95.44;102900.66;6090711;19;20472;-75
2023/04/17 03:28:14;;;;;;;47.95;20.98;;;;;;;7.26;95.38;102906.75;6099827;19;20376;-73
2023/04/17 03:30:23;;;;;;;53.20;19.23;;;;;;;7.28;94.99;102894.56;6100518;19;20354;-74
2023/04/17 03:32:28;;;;;;;44.25;19.13;;;;;;;7.22;95.05;102905.00;6099666;19;20007;-73
2023/04/17 03:34:35;;;;;;;51.45;21.75;;;;;;;7.32;94.70;102901.59;6099751;19;20006;-74
2023/04/17 03:36:51;;;;;;;51.72;21.70;;;;;;;7.22;94.94;102911.09;6100765;19;20007;-68
2023/04/17 03:38:58;;;;;;;50.30;21.20;;;;;;;7.25;95.01;102910.25;6088325;19;20038;-68
2023/04/17 03:41:16;;;;;;;45.55;19.00;;;;;;;7.32;94.48;102909.44;6097081;19;20566;-75
2023/04/17 03:43:23;;;;;;;45.42;20.27;;;;;;;7.32;94.07;102914.66;6099362;19;20090;-73
2023/04/17 03:45:28;;;;;;;47.67;18.45;;;;;;;7.18;94.31;102903.22;6096214;19;20015;-74
2023/04/17 03:47:34;;;;;;;41.67;17.45;;;;;;;7.21;94.37;102914.59;6099665;19;20012;-74
2023/04/17 03:49:41;;;;;;;44.47;18.48;;;;;;;7.19;94.45;102911.09;6096514;19;20637;-74
2023/04/17 03:51:46;;;;;;;46.78;19.50;;;;;;;7.18;94.90;102908.44;6098589;19;20447;-74
2023/04/17 03:53:51;;;;;;;46.40;19.80;;;;;;;7.22;94.77;102913.72;6094081;19;20382;-74
2023/04/17 03:55:56;;;;;;;46.05;19.85;;;;;;;7.29;94.54;102909.38;6099777;19;20085;-74
2023/04/17 03:58:01;;;;;;;53.63;20.90;;;;;;;7.23;94.53;102909.34;6098113;19;20010;-74
2023/04/17 04:00:09;;;;;;;44.33;18.52;;;;;;;7.28;94.65;102912.00;6098181;19;20006;-74
2023/04/17 04:02:14;;;;;;;54.90;20.77;;;;;;;7.23;94.77;102911.97;6096347;19;20089;-73
2023/04/17 04:04:22;;;;;;;48.17;19.20;;;;;;;7.22;94.83;102907.63;6093787;19;20055;-74
2023/04/17 04:06:30;;;;;;;46.88;17.92;;;;;;;7.24;94.92;102909.38;6099086;19;20023;-74
2023/04/17 04:08:36;;;;;;;49.78;17.60;;;;;;;7.18;94.72;102906.72;6095445;19;20042;-75
2023/04/17 04:10:43;;;;;;;49.10;20.30;;;;;;;7.15;95.15;102913.66;6098669;19;20002;-75
2023/04/17 04:12:53;;;;;;;48.67;18.05;;;;;;;7.17;94.86;102909.31;6095934;19;20003;-75
2023/04/17 04:14:58;;;;;;;40.10;18.55;;;;;;;7.17;94.91;102904.09;6098494;19;20470;-77
2023/04/17 04:17:03;;;;;;;42.75;18.25;;;;;;;7.21;95.05;102908.47;6099068;19;20013;-75
2023/04/17 04:19:08;;;;;;;43.28;19.02;;;;;;;7.19;95.14;102905.00;6098163;19;20348;-75
2023/04/17 04:21:13;;;;;;;45.90;17.45;;;;;;;7.19;95.14;102915.44;6096033;19;20014;-75
2023/04/17 04:23:23;;;;;;;46.40;18.75;;;;;;;7.20;95.01;102912.81;6097272;19;20871;-75
2023/04/17 04:25:29;;;;;;;49.25;20.13;;;;;;;7.26;94.83;102909.38;6098892;19;20002;-74
2023/04/17 04:27:34;;;;;;;47.97;19.25;;;;;;;7.29;95.10;102912.00;6093947;19;20508;-75
2023/04/17 04:29:47;;;;;;;44.75;19.90;;;;;;;7.21;95.09;102911.09;6093536;19;20332;-69
2023/04/17 04:31:57;;;;;;;52.15;19.15;;;;;;;7.13;95.19;102911.03;6095063;19;20534;-69
2023/04/17 04:34:12;;;;;;;40.25;17.27;;;;;;;7.23;95.01;102914.59;6083073;19;20359;-69
2023/04/17 04:36:40;;;;;;;42.28;19.30;;;;;;;7.33;94.77;102915.53;6088281;19;20029;-69
2023/04/17 04:39:19;;;;;;;35.28;17.05;;;;;;;7.32;94.52;102922.50;6092317;19;20013;-70
2023/04/17 04:41:39;;;;;;;38.78;16.45;;;;;;;7.29;94.15;102919.84;6072535;19;20011;-69
2023/04/17 04:44:02;;;;;;;42.00;18.17;;;;;;;7.29;93.74;102921.59;6072887;19;20487;-70
2023/04/17 04:46:09;;;;;;;42.30;17.35;;;;;;;7.32;93.92;102926.84;6086293;19;20469;-69
2023/04/17 04:48:16;;;;;;;38.67;17.67;;;;;;;7.34;93.97;102922.50;6089005;19;20503;-69
2023/04/17 04:50:25;;;;;;;41.50;17.55;;;;;;;7.35;94.21;102927.75;6071182;19;20501;-70
2023/04/17 04:52:36;;;;;;;40.17;19.80;;;;;;;7.31;94.19;102931.19;6089348;19;20013;-69
2023/04/17 04:54:51;;;;;;;51.08;17.75;;;;;;;7.33;93.87;102929.47;6089785;19;20097;-70
2023/04/17 04:57:00;;;;;;;49.83;18.65;;;;;;;7.29;93.93;102932.94;6058860;19;20441;-72
2023/04/17 04:59:05;;;;;;;43.08;19.73;;;;;;;7.30;94.21;102931.22;6095001;19;20017;-68
2023/04/17 05:01:18;;;;;;;53.20;18.83;;;;;;;7.26;94.45;102925.06;6091221;19;20035;-68
2023/04/17 05:03:26;;;;;;;49.08;21.98;;;;;;;7.33;94.33;102928.63;6083801;19;20049;-68
2023/04/17 05:05:39;;;;;;;42.53;18.25;;;;;;;7.43;93.29;102935.66;6097243;19;21211;-69
2023/04/17 05:07:52;;;;;;;42.92;17.92;;;;;;;7.40;93.45;102931.28;6098525;19;20018;-69
2023/04/17 05:10:02;;;;;;;42.60;17.58;;;;;;;7.33;92.94;102936.47;6095124;19;20003;-68
2023/04/17 05:12:21;;;;;;;;;;;;;;;;;;;;;
2023/04/17 05:14:43;;;;;;;38.30;16.35;;;;;;;7.33;92.97;102950.41;6091090;19;20029;-68
2023/04/17 05:17:03;;;;;;;45.47;16.98;;;;;;;7.37;92.68;102953.91;6080373;19;20003;-69
2023/04/17 05:19:09;;;;;;;45.17;17.65;;;;;;;7.35;92.75;102953.03;6082135;19;20076;-68
2023/04/17 05:21:20;;;;;;;46.40;18.00;;;;;;;7.36;93.25;102950.41;6100457;19;20017;-68
2023/04/17 05:23:34;;;;;;;45.97;19.35;;;;;;;7.36;93.05;102962.63;6096172;19;20018;-68
2023/04/17 05:26:04;;;;;;;49.60;18.48;;;;;;;7.42;93.25;102954.81;6095039;19;20034;-69
2023/04/17 05:28:10;;;;;;;56.95;19.80;;;;;;;7.50;92.76;102957.47;6076449;19;20106;-69
2023/04/17 05:30:23;;;;;;;43.85;18.15;;;;;;;7.47;92.88;102959.22;6097578;19;20011;-69
2023/04/17 05:32:39;;;;;;;51.95;18.80;;;;;;;7.51;92.96;102961.88;6099767;19;20485;-68
2023/04/17 05:34:56;;;;;;;47.67;18.20;;;;;;;7.44;92.57;102956.56;6098096;19;20021;-69
2023/04/17 05:37:08;;;;;;;37.67;17.30;;;;;;;7.45;92.91;102960.97;6077923;19;20382;-69
2023/04/17 05:39:13;;;;;;;42.85;17.13;;;;;;;7.53;92.72;102967.97;6106448;19;20019;-74
2023/04/17 05:41:23;;;;;;;46.75;18.73;;;;;;;7.47;92.50;102963.56;6108116;19;20025;-74
2023/04/17 05:43:28;;;;;;;41.33;17.38;;;;;;;7.52;92.40;102958.38;6105923;19;20015;-74
2023/04/17 05:45:33;;;;;;;41.33;18.65;;;;;;;7.57;92.02;102960.16;6108339;19;20007;-75
2023/04/17 05:47:38;;;;;;;41.30;16.67;;;;;;;7.58;92.13;102956.69;6104783;19;20407;-74
2023/04/17 05:49:43;;;;;;;44.50;19.35;;;;;;;7.60;92.29;102959.28;6103079;19;20495;-75
2023/04/17 05:51:49;;;;;;;43.13;18.73;;;;;;;7.61;92.11;102961.94;6104577;19;20086;-75
2023/04/17 05:53:55;;;;;;;47.45;19.27;;;;;;;7.64;91.44;102959.31;6100780;19;20019;-75
2023/04/17 05:56:02;;;;;;;41.88;17.90;;;;;;;7.63;91.70;102965.41;6103240;19;20183;-75
2023/04/17 05:58:10;;;;;;;44.22;18.92;;;;;;;7.72;91.81;102959.38;6097919;19;20015;-75
2023/04/17 06:00:27;;;;;;;49.05;18.50;;;;;;;7.80;91.68;102959.41;6100503;19;20372;-75
2023/04/17 06:02:33;;;;;;;45.05;18.95;;;;;;;7.85;91.22;102955.06;6101054;19;20011;-73
2023/04/17 06:04:38;;;;;;;42.50;18.40;;;;;;;7.85;91.04;102963.81;6103256;19;20010;-75
2023/04/17 06:06:43;;;;;;;40.17;18.77;;;;;;;7.86;90.88;102962.06;6104287;19;20482;-75
2023/04/17 06:08:51;;;;;;;43.17;18.60;;;;;;;7.88;90.57;102962.94;6102487;19;20003;-75
2023/04/17 06:10:56;;;;;;;45.88;19.63;;;;;;;7.89;90.90;102973.41;6101995;19;20014;-74
2023/04/17 06:13:02;;;;;;;41.80;18.52;;;;;;;7.97;90.65;102967.34;6099920;19;20003;-76
2023/04/17 06:15:10;;;;;;;40.03;17.75;;;;;;;7.99;90.73;102976.06;6101296;19;20609;-75
2023/04/17 06:17:16;;;;;;;43.65;19.13;;;;;;;7.98;90.40;102969.97;6101535;19;20038;-75
2023/04/17 06:19:23;;;;;;;40.00;18.15;;;;;;;8.02;90.13;102976.09;6104462;19;20574;-75
2023/04/17 06:21:30;;;;;;;47.70;20.52;;;;;;;8.01;90.58;102980.47;6103381;19;20027;-76
2023/04/17 06:23:35;;;;;;;47.95;19.70;;;;;;;8.05;90.53;102976.09;6104816;19;20014;-74
2023/04/17 06:25:41;;;;;;;45.60;19.73;;;;;;;8.09;90.49;102975.25;6102158;19;20423;-75
2023/04/17 06:27:46;;;;;;;40.85;17.77;;;;;;;8.06;90.59;102976.13;6101794;19;20038;-74
2023/04/17 06:29:53;;;;;;;39.17;17.98;;;;;;;8.11;90.15;102968.28;6102046;19;20035;-76
2023/04/17 06:32:01;;;;;;;46.75;19.27;;;;;;;8.13;90.57;102977.00;6102507;19;20006;-74
2023/04/17 06:34:06;;;;;;;40.80;17.83;;;;;;;8.14;90.17;102970.91;6105238;19;20037;-74
2023/04/17 06:36:11;;;;;;;39.97;17.83;;;;;;;8.16;90.13;102973.50;6105831;19;20018;-76
2023/04/17 06:38:16;;;;;;;39.42;19.10;;;;;;;8.20;89.58;102978.78;6104391;19;20038;-73
2023/04/17 06:40:24;;;;;;;38.53;18.80;;;;;;;8.23;89.42;102973.56;6104542;19;20014;-74
2023/04/17 06:42:44;;;;;;;39.28;17.65;;;;;;;8.25;89.57;102982.28;6103360;19;20006;-68
2023/04/17 06:44:59;;;;;;;38.80;18.67;;;;;;;8.32;89.08;102980.56;6076474;19;20530;-68
2023/04/17 06:47:13;;;;;;;37.03;17.08;;;;;;;8.33;88.42;102985.81;6073825;19;20031;-68
2023/04/17 06:49:33;;;;;;;37.97;18.10;;;;;;;8.33;88.17;102985.81;6097700;19;20022;-69
2023/04/17 06:51:46;;;;;;;39.60;18.58;;;;;;;8.27;88.34;102991.03;6097343;19;20042;-68
2023/04/17 06:53:52;;;;;;;;;;;;;;;8.28;88.65;102991.91;6095122;19;20006;-68
2023/04/17 06:55:59;;;;;;;34.65;17.30;;;;;;;8.35;88.39;102994.56;6101399;19;20288;-68
2023/04/17 06:58:09;;;;;;;41.45;17.52;;;;;;;8.40;88.41;102994.63;6078618;19;20015;-68
2023/04/17 07:00:20;;;;;;;42.67;18.40;;;;;;;8.41;88.08;102998.97;6097112;19;20690;-69
2023/04/17 07:02:38;;;;;;;36.15;17.58;;;;;;;8.44;88.07;103008.59;6094592;19;20014;-69
2023/04/17 07:04:49;;;;;;;41.20;17.92;;;;;;;8.53;87.88;103004.25;6087347;19;20360;-69
2023/04/17 07:07:02;;;;;;;36.80;17.88;;;;;;;8.60;87.78;103007.75;6086534;19;20074;-68
2023/04/17 07:09:11;;;;;;;38.60;16.83;;;;;;;8.64;87.43;103012.16;6084851;19;20023;-69
2023/04/17 07:11:30;;;;;;;39.28;17.50;;;;;;;8.62;87.50;103010.41;6079053;19;20014;-69
2023/04/17 07:14:05;;;;;;;41.92;19.30;;;;;;;8.67;87.40;103014.75;6093763;19;20033;-69
2023/04/17 07:16:30;;;;;;;44.17;17.30;;;;;;;8.82;87.22;103016.56;6096919;19;20640;-70
2023/04/17 07:18:46;;;;;;;35.10;19.17;;;;;;;8.78;87.66;103014.78;6089659;19;20017;-68
2023/04/17 07:20:54;;;;;;;39.75;17.30;;;;;;;8.81;86.89;103011.31;6089582;19;20010;-68
2023/04/17 07:22:59;;;;;;;44.03;18.98;;;;;;;8.76;87.24;103021.78;6095199;19;20173;-74
2023/04/17 07:25:04;;;;;;;41.10;18.73;;;;;;;8.82;86.92;103024.41;6096616;19;20081;-76
2023/04/17 07:27:09;;;;;;;39.45;18.42;;;;;;;8.77;86.30;103018.28;6093882;19;20007;-74
2023/04/17 07:29:14;;;;;;;40.75;19.83;;;;;;;8.84;86.67;103017.41;6093781;19;21490;-74
2023/04/17 07:31:22;;;;;;;37.08;17.60;;;;;;;8.93;86.50;103016.56;6086535;19;20101;-74
2023/04/17 07:33:28;;;;;;;40.65;18.20;;;;;;;8.82;86.25;103020.91;6092274;19;20007;-74
2023/04/17 07:35:35;;;;;;;40.75;18.20;;;;;;;8.84;86.49;103030.53;6091940;19;20090;-74
2023/04/17 07:37:42;;;;;;;44.70;19.65;;;;;;;8.90;86.29;103021.78;6089628;19;21044;-75
2023/04/17 07:39:52;;;;;;;38.35;18.98;;;;;;;8.89;86.03;103018.28;6091493;19;20528;-75
2023/04/17 07:41:57;;;;;;;44.95;20.92;;;;;;;8.98;85.65;103023.56;6095077;19;20025;-75
2023/04/17 07:44:04;;;;;;;41.22;19.48;;;;;;;9.00;85.51;103015.69;6096035;19;20023;-75
2023/04/17 07:46:10;;;;;;;42.28;19.05;;;;;;;8.97;85.62;103018.31;6097079;19;20011;-75
2023/04/17 07:48:16;;;;;;;43.80;19.00;;;;;;;9.11;85.48;103023.56;6097107;19;20011;-75
2023/04/17 07:50:23;;;;;;;40.35;19.85;;;;;;;9.02;85.59;103025.31;6094661;19;20623;-76
2023/04/17 07:52:34;;;;;;;44.22;20.33;;;;;;;9.12;85.77;103028.81;6090196;19;20019;-76
2023/04/17 07:54:42;;;;;;;41.08;20.38;;;;;;;9.04;85.35;103022.69;6092917;19;20062;-74
2023/04/17 07:56:49;;;;;;;37.35;18.75;;;;;;;9.10;85.29;103022.69;6088518;19;20686;-75
2023/04/17 07:58:55;;;;;;;42.33;18.40;;;;;;;9.14;85.69;103029.69;6096356;19;20007;-75
2023/04/17 08:01:00;;;;;;;42.20;18.50;;;;;;;9.13;85.82;103033.19;6092923;19;20014;-75
2023/04/17 08:03:06;;;;;;;40.85;19.10;;;;;;;9.13;85.38;103027.94;6093943;19;20384;-75
2023/04/17 08:05:12;;;;;;;41.67;19.58;;;;;;;9.01;85.39;103035.81;6097312;19;20414;-75
2023/04/17 08:07:21;;;;;;;39.08;18.30;;;;;;;9.02;85.73;103033.16;6096233;19;20006;-76
2023/04/17 08:09:29;;;;;;;43.58;19.08;;;;;;;9.01;85.84;103033.19;6093938;19;20448;-76
2023/04/17 08:11:34;;;;;;;41.72;21.08;;;;;;;9.06;85.69;103026.19;6098671;19;20066;-76
2023/04/17 08:13:50;;;;;;;44.05;18.92;;;;;;;9.11;85.49;103027.09;6101606;19;20046;-76
2023/04/17 08:15:55;;;;;;;48.13;21.92;;;;;;;9.10;85.60;103022.69;6101148;19;20574;-76
2023/04/17 08:18:00;;;;;;;41.13;18.63;;;;;;;9.15;85.34;103028.81;6098373;19;20530;-76
2023/04/17 08:20:10;;;;;;;44.17;19.58;;;;;;;9.11;85.92;103031.44;6103260;19;20037;-76
2023/04/17 08:22:20;;;;;;;43.63;19.50;;;;;;;9.15;85.77;103020.94;6102702;19;20438;-76
2023/04/17 08:24:25;;;;;;;37.70;19.75;;;;;;;9.15;85.49;103036.69;6104365;19;20035;-76
2023/04/17 08:26:33;;;;;;;50.33;22.85;;;;;;;9.22;85.49;103037.56;6105091;19;20014;-76
2023/04/17 08:28:38;;;;;;;47.88;21.27;;;;;;;9.14;85.80;103028.84;6106159;19;20013;-77
2023/04/17 08:30:43;;;;;;;44.08;20.65;;;;;;;9.16;86.02;103027.97;6104488;19;20021;-76
2023/04/17 08:32:50;;;;;;;47.08;21.30;;;;;;;9.25;85.76;103023.59;6101896;19;20486;-76
2023/04/17 08:35:02;;;;;;;46.97;20.65;;;;;;;9.33;85.41;103037.56;6104714;19;20011;-70
2023/04/17 08:37:11;;;;;;;45.83;21.23;;;;;;;9.36;84.97;103032.31;6094508;19;20041;-69
2023/04/17 08:39:23;;;;;;;46.08;20.20;;;;;;;9.38;84.94;103033.19;6101680;19;20113;-70
2023/04/17 08:41:40;;;;;;;46.90;20.73;;;;;;;9.40;85.10;103032.31;6101635;19;20010;-70
2023/04/17 08:43:54;;;;;;;41.22;20.25;;;;;;;9.35;84.66;103033.22;6100015;19;20045;-70
2023/04/17 08:46:03;;;;;;;40.65;20.02;;;;;;;9.50;84.62;103027.94;6102250;19;20009;-70
2023/04/17 08:48:20;;;;;;;42.28;20.17;;;;;;;9.52;84.31;103030.56;6089878;19;20033;-70
2023/04/17 08:50:33;;;;;;;50.85;20.73;;;;;;;9.52;84.30;103034.06;6086800;19;20597;-70
2023/04/17 08:52:46;;;;;;;50.00;21.83;;;;;;;9.61;84.32;103033.16;6095535;19;20221;-70
2023/04/17 08:54:55;;;;;;;49.38;21.17;;;;;;;9.67;84.02;103039.28;6093395;19;20145;-70
2023/04/17 08:57:12;;;;;;;48.65;21.08;;;;;;;9.61;84.13;103034.06;6103247;19;20039;-70
2023/04/17 08:59:23;;;;;;;46.72;21.42;;;;;;;9.76;83.45;103035.75;6086143;19;20009;-69
2023/04/17 09:01:37;;;;;;;45.28;21.77;;;;;;;9.87;83.33;103033.13;6097177;19;20011;-69
2023/04/17 09:03:55;;;;;;;44.85;20.45;;;;;;;9.96;82.53;103037.50;6102865;19;20642;-69
2023/04/17 09:06:08;;;;;;;50.70;21.02;;;;;;;10.02;81.69;103037.47;6106886;19;20086;-69
2023/04/17 09:08:19;;;;;;;47.28;21.27;;;;;;;10.25;81.55;103037.41;6099100;19;20038;-69
2023/04/17 09:10:36;;;;;;;44.58;20.77;;;;;;;10.27;80.87;103038.28;6104060;19;20014;-74
2023/04/17 09:13:01;;;;;;;44.50;21.08;;;;;;;10.25;81.06;103040.03;6102766;19;20078;-75
2023/04/17 09:15:18;;;;;;;47.45;21.52;;;;;;;10.37;81.46;103034.72;6103068;19;20022;-76
2023/04/17 09:17:26;;;;;;;44.22;19.52;;;;;;;10.46;80.62;103037.34;6104905;19;20026;-75
2023/04/17 09:19:31;;;;;;;49.40;20.15;;;;;;;10.51;79.81;103043.44;6107263;19;20006;-75
2023/04/17 09:21:38;;;;;;;42.50;20.58;;;;;;;10.47;79.51;103046.94;6104900;19;20082;-75
2023/04/17 09:23:54;;;;;;;42.17;19.63;;;;;;;10.44;79.35;103046.97;6096199;19;20006;-75
2023/04/17 09:26:09;;;;;;;38.75;20.02;;;;;;;10.46;79.43;103047.84;6101699;19;20107;-74
2023/04/17 09:28:18;;;;;;;45.75;20.33;;;;;;;10.64;78.92;103051.28;6104824;19;20125;-75
2023/04/17 09:30:26;;;;;;;46.55;24.55;;;;;;;10.60;78.56;103052.16;6101579;19;20534;-75
2023/04/17 09:32:32;;;;;;;46.15;21.02;;;;;;;10.67;79.01;103053.88;6104119;19;20046;-75
2023/04/17 09:34:43;;;;;;;48.85;22.40;;;;;;;10.59;78.85;103053.06;6103227;19;20007;-75
2023/04/17 09:36:49;;;;;;;45.60;21.35;;;;;;;10.94;77.06;103051.06;6100472;19;20070;-75
2023/04/17 09:38:54;;;;;;;46.70;20.90;;;;;;;10.94;76.75;103058.09;6098574;19;20677;-75
2023/04/17 09:41:04;;;;;;;44.08;20.80;;;;;;;11.09;76.65;103054.50;6101071;19;20459;-75
2023/04/17 09:43:11;;;;;;;42.95;19.98;;;;;;;11.01;76.12;103049.28;6099266;19;20471;-75
2023/04/17 09:45:27;;;;;;;43.63;20.90;;;;;;;11.11;75.95;103050.06;6099093;19;20383;-75
2023/04/17 09:47:32;;;;;;;43.58;20.33;;;;;;;11.20;75.89;103050.03;6102630;19;20705;-75
2023/04/17 09:49:43;;;;;;;44.95;19.75;;;;;;;11.32;75.76;103051.66;6099149;19;20357;-76
2023/04/17 09:51:48;;;;;;;40.67;20.77;;;;;;;11.36;76.11;103046.38;6101830;19;20034;-75
2023/04/17 09:53:56;;;;;;;42.92;21.83;;;;;;;11.49;75.84;103059.44;6099710;19;20010;-75
2023/04/17 09:56:04;;;;;;;41.80;19.15;;;;;;;11.56;75.16;103051.47;6097076;19;20085;-75
2023/04/17 09:58:09;;;;;;;39.90;20.58;;;;;;;11.39;74.57;103062.13;6101036;19;20613;-75